sensor_id;sensor_type;location;lat;lon;timestamp;P1;durP1;ratioP1;P2;durP2;ratioP2
25525;SDS011;13424;48.424;11.258;2023-07-29T00:00:43;5.78;;;4.22;;
25525;SDS011;13424;48.424;11.258;2023-07-29T00:03:09;10.00;;;5.60;;
25525;SDS011;13424;48.424;11.258;2023-07-29T00:05:39;9.57;;;4.88;;
25525;SDS011;13424;48.424;11.258;2023-07-29T00:08:05;4.95;;;4.45;;
25525;SDS011;13424;48.424;11.258;2023-07-29T00:10:37;9.77;;;4.53;;
25525;SDS011;13424;48.424;11.258;2023-07-29T00:13:04;10.45;;;5.07;;
25525;SDS011;13424;48.424;11.258;2023-07-29T00:15:31;7.45;;;4.25;;
25525;SDS011;13424;48.424;11.258;2023-07-29T00:17:57;5.88;;;4.80;;
25525;SDS011;13424;48.424;11.258;2023-07-29T00:20:23;7.05;;;4.43;;
25525;SDS011;13424;48.424;11.258;2023-07-29T00:22:49;7.85;;;4.63;;
25525;SDS011;13424;48.424;11.258;2023-07-29T00:25:18;13.98;;;5.43;;
25525;SDS011;13424;48.424;11.258;2023-07-29T00:27:44;9.27;;;4.25;;
25525;SDS011;13424;48.424;11.258;2023-07-29T00:30:10;9.48;;;4.32;;
25525;SDS011;13424;48.424;11.258;2023-07-29T00:32:36;6.97;;;4.43;;
25525;SDS011;13424;48.424;11.258;2023-07-29T00:35:03;5.13;;;4.30;;
25525;SDS011;13424;48.424;11.258;2023-07-29T00:37:30;5.68;;;4.88;;
25525;SDS011;13424;48.424;11.258;2023-07-29T00:39:56;8.27;;;4.40;;
25525;SDS011;13424;48.424;11.258;2023-07-29T00:42:23;5.45;;;4.82;;
25525;SDS011;13424;48.424;11.258;2023-07-29T00:44:50;6.00;;;4.38;;
25525;SDS011;13424;48.424;11.258;2023-07-29T00:47:16;7.32;;;4.28;;
25525;SDS011;13424;48.424;11.258;2023-07-29T00:49:43;9.88;;;4.88;;
25525;SDS011;13424;48.424;11.258;2023-07-29T00:52:10;7.05;;;4.82;;
25525;SDS011;13424;48.424;11.258;2023-07-29T00:54:39;6.90;;;4.82;;
25525;SDS011;13424;48.424;11.258;2023-07-29T00:57:07;11.55;;;5.38;;
25525;SDS011;13424;48.424;11.258;2023-07-29T00:59:36;6.85;;;5.53;;
25525;SDS011;13424;48.424;11.258;2023-07-29T01:02:02;9.40;;;5.57;;
25525;SDS011;13424;48.424;11.258;2023-07-29T01:04:31;9.35;;;4.93;;
25525;SDS011;13424;48.424;11.258;2023-07-29T01:07:14;6.38;;;4.97;;
25525;SDS011;13424;48.424;11.258;2023-07-29T01:10:13;9.80;;;5.22;;
25525;SDS011;13424;48.424;11.258;2023-07-29T01:13:05;7.80;;;4.32;;
25525;SDS011;13424;48.424;11.258;2023-07-29T01:15:43;5.00;;;4.45;;
25525;SDS011;13424;48.424;11.258;2023-07-29T01:18:42;7.20;;;4.93;;
25525;SDS011;13424;48.424;11.258;2023-07-29T01:21:13;8.10;;;5.18;;
25525;SDS011;13424;48.424;11.258;2023-07-29T01:23:42;5.65;;;4.50;;
25525;SDS011;13424;48.424;11.258;2023-07-29T01:26:08;8.43;;;4.32;;
25525;SDS011;13424;48.424;11.258;2023-07-29T01:28:34;6.10;;;4.88;;
25525;SDS011;13424;48.424;11.258;2023-07-29T01:34:53;5.25;;;4.50;;
25525;SDS011;13424;48.424;11.258;2023-07-29T01:37:30;6.18;;;4.53;;
25525;SDS011;13424;48.424;11.258;2023-07-29T01:40:00;9.05;;;4.93;;
25525;SDS011;13424;48.424;11.258;2023-07-29T01:42:28;7.10;;;5.35;;
25525;SDS011;13424;48.424;11.258;2023-07-29T01:44:59;7.18;;;4.57;;
25525;SDS011;13424;48.424;11.258;2023-07-29T01:47:26;6.80;;;4.85;;
25525;SDS011;13424;48.424;11.258;2023-07-29T01:49:54;5.50;;;4.95;;
25525;SDS011;13424;48.424;11.258;2023-07-29T01:52:21;8.00;;;5.55;;
25525;SDS011;13424;48.424;11.258;2023-07-29T01:54:48;7.25;;;5.18;;
25525;SDS011;13424;48.424;11.258;2023-07-29T01:57:13;10.55;;;5.53;;
25525;SDS011;13424;48.424;11.258;2023-07-29T01:59:39;5.50;;;4.95;;
25525;SDS011;13424;48.424;11.258;2023-07-29T02:02:05;7.75;;;5.47;;
25525;SDS011;13424;48.424;11.258;2023-07-29T02:04:32;8.65;;;6.38;;
25525;SDS011;13424;48.424;11.258;2023-07-29T02:06:58;11.02;;;8.75;;
25525;SDS011;13424;48.424;11.258;2023-07-29T02:09:24;16.65;;;7.93;;
25525;SDS011;13424;48.424;11.258;2023-07-29T02:11:51;8.90;;;7.03;;
25525;SDS011;13424;48.424;11.258;2023-07-29T02:14:17;8.40;;;5.32;;
25525;SDS011;13424;48.424;11.258;2023-07-29T02:16:43;7.32;;;5.25;;
25525;SDS011;13424;48.424;11.258;2023-07-29T02:19:09;5.53;;;4.80;;
25525;SDS011;13424;48.424;11.258;2023-07-29T02:21:35;7.60;;;5.03;;
25525;SDS011;13424;48.424;11.258;2023-07-29T02:24:01;6.53;;;5.35;;
25525;SDS011;13424;48.424;11.258;2023-07-29T02:26:27;5.82;;;4.75;;
25525;SDS011;13424;48.424;11.258;2023-07-29T02:28:53;6.43;;;4.63;;
25525;SDS011;13424;48.424;11.258;2023-07-29T02:31:23;5.00;;;4.50;;
25525;SDS011;13424;48.424;11.258;2023-07-29T02:33:51;6.95;;;4.32;;
25525;SDS011;13424;48.424;11.258;2023-07-29T02:36:18;13.93;;;4.88;;
25525;SDS011;13424;48.424;11.258;2023-07-29T02:38:44;8.88;;;5.00;;
25525;SDS011;13424;48.424;11.258;2023-07-29T02:41:10;7.53;;;5.03;;
25525;SDS011;13424;48.424;11.258;2023-07-29T02:43:42;7.65;;;4.53;;
25525;SDS011;13424;48.424;11.258;2023-07-29T02:46:09;6.93;;;5.20;;
25525;SDS011;13424;48.424;11.258;2023-07-29T02:48:35;10.85;;;6.00;;
25525;SDS011;13424;48.424;11.258;2023-07-29T02:51:01;7.85;;;5.00;;
25525;SDS011;13424;48.424;11.258;2023-07-29T02:53:26;9.23;;;5.38;;
25525;SDS011;13424;48.424;11.258;2023-07-29T02:55:52;8.82;;;5.13;;
25525;SDS011;13424;48.424;11.258;2023-07-29T02:58:19;8.07;;;4.50;;
25525;SDS011;13424;48.424;11.258;2023-07-29T03:00:45;6.15;;;4.25;;
25525;SDS011;13424;48.424;11.258;2023-07-29T03:06:54;5.43;;;4.30;;
25525;SDS011;13424;48.424;11.258;2023-07-29T03:09:20;7.75;;;5.47;;
25525;SDS011;13424;48.424;11.258;2023-07-29T03:11:46;7.90;;;5.25;;
25525;SDS011;13424;48.424;11.258;2023-07-29T03:14:12;6.55;;;4.80;;
25525;SDS011;13424;48.424;11.258;2023-07-29T03:16:38;7.95;;;4.32;;
25525;SDS011;13424;48.424;11.258;2023-07-29T03:19:05;11.00;;;5.90;;
25525;SDS011;13424;48.424;11.258;2023-07-29T03:21:31;8.43;;;5.10;;
25525;SDS011;13424;48.424;11.258;2023-07-29T03:23:58;5.50;;;4.07;;
25525;SDS011;13424;48.424;11.258;2023-07-29T03:26:24;4.70;;;4.18;;
25525;SDS011;13424;48.424;11.258;2023-07-29T03:28:50;7.63;;;4.40;;
25525;SDS011;13424;48.424;11.258;2023-07-29T03:31:16;5.95;;;4.50;;
25525;SDS011;13424;48.424;11.258;2023-07-29T03:33:44;7.75;;;4.75;;
25525;SDS011;13424;48.424;11.258;2023-07-29T03:36:10;8.15;;;4.20;;
25525;SDS011;13424;48.424;11.258;2023-07-29T03:38:38;6.65;;;4.63;;
25525;SDS011;13424;48.424;11.258;2023-07-29T03:41:09;5.68;;;4.40;;
25525;SDS011;13424;48.424;11.258;2023-07-29T03:43:35;7.07;;;5.10;;
25525;SDS011;13424;48.424;11.258;2023-07-29T03:46:01;7.18;;;4.97;;
25525;SDS011;13424;48.424;11.258;2023-07-29T03:48:27;6.22;;;5.40;;
25525;SDS011;13424;48.424;11.258;2023-07-29T03:50:53;8.32;;;4.50;;
25525;SDS011;13424;48.424;11.258;2023-07-29T03:53:20;7.53;;;5.07;;
25525;SDS011;13424;48.424;11.258;2023-07-29T03:55:46;7.97;;;5.10;;
25525;SDS011;13424;48.424;11.258;2023-07-29T03:58:12;8.88;;;5.03;;
25525;SDS011;13424;48.424;11.258;2023-07-29T04:00:38;5.00;;;4.43;;
25525;SDS011;13424;48.424;11.258;2023-07-29T04:03:04;5.93;;;4.93;;
25525;SDS011;13424;48.424;11.258;2023-07-29T04:05:30;10.93;;;5.03;;
25525;SDS011;13424;48.424;11.258;2023-07-29T04:07:56;6.85;;;4.53;;
25525;SDS011;13424;48.424;11.258;2023-07-29T04:10:22;6.20;;;4.82;;
25525;SDS011;13424;48.424;11.258;2023-07-29T04:12:48;6.93;;;4.88;;
25525;SDS011;13424;48.424;11.258;2023-07-29T04:19:39;7.35;;;4.57;;
25525;SDS011;13424;48.424;11.258;2023-07-29T04:22:05;4.95;;;4.40;;
25525;SDS011;13424;48.424;11.258;2023-07-29T04:24:31;5.65;;;5.00;;
25525;SDS011;13424;48.424;11.258;2023-07-29T04:26:57;9.15;;;4.40;;
25525;SDS011;13424;48.424;11.258;2023-07-29T04:29:23;6.82;;;4.68;;
25525;SDS011;13424;48.424;11.258;2023-07-29T04:31:50;8.43;;;4.90;;
25525;SDS011;13424;48.424;11.258;2023-07-29T04:34:17;7.35;;;4.78;;
25525;SDS011;13424;48.424;11.258;2023-07-29T04:36:45;7.80;;;4.60;;
25525;SDS011;13424;48.424;11.258;2023-07-29T04:39:12;7.28;;;4.85;;
25525;SDS011;13424;48.424;11.258;2023-07-29T04:41:38;7.55;;;4.93;;
25525;SDS011;13424;48.424;11.258;2023-07-29T04:44:04;9.18;;;4.40;;
25525;SDS011;13424;48.424;11.258;2023-07-29T04:46:31;5.75;;;4.68;;
25525;SDS011;13424;48.424;11.258;2023-07-29T04:48:58;6.93;;;5.35;;
25525;SDS011;13424;48.424;11.258;2023-07-29T04:51:24;6.75;;;5.00;;
25525;SDS011;13424;48.424;11.258;2023-07-29T04:53:50;6.88;;;4.93;;
25525;SDS011;13424;48.424;11.258;2023-07-29T04:56:16;5.22;;;4.13;;
25525;SDS011;13424;48.424;11.258;2023-07-29T04:58:44;7.93;;;4.78;;
25525;SDS011;13424;48.424;11.258;2023-07-29T05:01:10;20.02;;;5.10;;
25525;SDS011;13424;48.424;11.258;2023-07-29T05:03:36;7.50;;;4.38;;
25525;SDS011;13424;48.424;11.258;2023-07-29T05:06:03;6.53;;;4.40;;
25525;SDS011;13424;48.424;11.258;2023-07-29T05:11:44;15.63;;;4.63;;
25525;SDS011;13424;48.424;11.258;2023-07-29T05:14:15;5.95;;;4.63;;
25525;SDS011;13424;48.424;11.258;2023-07-29T05:16:43;6.18;;;4.10;;
25525;SDS011;13424;48.424;11.258;2023-07-29T05:19:09;15.25;;;5.88;;
25525;SDS011;13424;48.424;11.258;2023-07-29T05:21:35;4.18;;;3.63;;
25525;SDS011;13424;48.424;11.258;2023-07-29T05:24:03;8.25;;;4.15;;
25525;SDS011;13424;48.424;11.258;2023-07-29T05:26:29;4.38;;;3.90;;
25525;SDS011;13424;48.424;11.258;2023-07-29T05:28:55;7.88;;;4.50;;
25525;SDS011;13424;48.424;11.258;2023-07-29T05:31:22;5.63;;;3.70;;
25525;SDS011;13424;48.424;11.258;2023-07-29T05:33:48;4.30;;;3.78;;
25525;SDS011;13424;48.424;11.258;2023-07-29T05:36:15;5.80;;;4.32;;
25525;SDS011;13424;48.424;11.258;2023-07-29T05:38:41;6.57;;;3.50;;
25525;SDS011;13424;48.424;11.258;2023-07-29T05:41:07;4.72;;;3.88;;
25525;SDS011;13424;48.424;11.258;2023-07-29T05:43:36;4.57;;;3.97;;
25525;SDS011;13424;48.424;11.258;2023-07-29T05:46:02;3.80;;;3.33;;
25525;SDS011;13424;48.424;11.258;2023-07-29T05:48:29;6.97;;;4.00;;
25525;SDS011;13424;48.424;11.258;2023-07-29T05:50:55;6.47;;;3.60;;
25525;SDS011;13424;48.424;11.258;2023-07-29T05:53:21;5.28;;;3.03;;
25525;SDS011;13424;48.424;11.258;2023-07-29T05:55:47;5.90;;;3.15;;
25525;SDS011;13424;48.424;11.258;2023-07-29T05:58:13;4.90;;;3.65;;
25525;SDS011;13424;48.424;11.258;2023-07-29T06:00:39;7.78;;;4.57;;
25525;SDS011;13424;48.424;11.258;2023-07-29T06:03:07;5.60;;;3.95;;
25525;SDS011;13424;48.424;11.258;2023-07-29T06:05:33;5.28;;;3.40;;
25525;SDS011;13424;48.424;11.258;2023-07-29T06:07:59;8.15;;;4.40;;
25525;SDS011;13424;48.424;11.258;2023-07-29T06:10:25;7.10;;;4.00;;
25525;SDS011;13424;48.424;11.258;2023-07-29T06:12:51;5.88;;;4.03;;
25525;SDS011;13424;48.424;11.258;2023-07-29T06:15:17;4.78;;;3.92;;
25525;SDS011;13424;48.424;11.258;2023-07-29T06:17:47;5.35;;;4.00;;
25525;SDS011;13424;48.424;11.258;2023-07-29T06:20:13;6.85;;;3.42;;
25525;SDS011;13424;48.424;11.258;2023-07-29T06:22:39;6.30;;;4.28;;
25525;SDS011;13424;48.424;11.258;2023-07-29T06:25:06;3.83;;;3.50;;
25525;SDS011;13424;48.424;11.258;2023-07-29T06:27:32;7.70;;;3.83;;
25525;SDS011;13424;48.424;11.258;2023-07-29T06:29:58;3.88;;;3.42;;
25525;SDS011;13424;48.424;11.258;2023-07-29T06:32:24;5.63;;;3.30;;
25525;SDS011;13424;48.424;11.258;2023-07-29T06:34:50;5.53;;;3.53;;
25525;SDS011;13424;48.424;11.258;2023-07-29T06:37:17;7.03;;;3.75;;
25525;SDS011;13424;48.424;11.258;2023-07-29T06:44:09;5.78;;;4.60;;
25525;SDS011;13424;48.424;11.258;2023-07-29T06:46:35;4.18;;;3.45;;
25525;SDS011;13424;48.424;11.258;2023-07-29T06:49:01;6.18;;;3.80;;
25525;SDS011;13424;48.424;11.258;2023-07-29T06:51:27;5.82;;;3.92;;
25525;SDS011;13424;48.424;11.258;2023-07-29T06:53:57;4.95;;;3.58;;
25525;SDS011;13424;48.424;11.258;2023-07-29T06:56:23;4.57;;;3.53;;
25525;SDS011;13424;48.424;11.258;2023-07-29T06:59:01;5.35;;;3.80;;
25525;SDS011;13424;48.424;11.258;2023-07-29T07:01:27;6.60;;;4.38;;
25525;SDS011;13424;48.424;11.258;2023-07-29T07:03:53;10.18;;;4.18;;
25525;SDS011;13424;48.424;11.258;2023-07-29T07:06:21;7.57;;;4.32;;
25525;SDS011;13424;48.424;11.258;2023-07-29T07:08:47;8.23;;;4.03;;
25525;SDS011;13424;48.424;11.258;2023-07-29T07:11:13;6.78;;;4.22;;
25525;SDS011;13424;48.424;11.258;2023-07-29T07:13:39;6.60;;;4.20;;
25525;SDS011;13424;48.424;11.258;2023-07-29T07:16:05;8.05;;;4.80;;
25525;SDS011;13424;48.424;11.258;2023-07-29T07:18:31;10.55;;;4.45;;
25525;SDS011;13424;48.424;11.258;2023-07-29T07:20:57;9.00;;;4.03;;
25525;SDS011;13424;48.424;11.258;2023-07-29T07:23:23;6.05;;;4.07;;
25525;SDS011;13424;48.424;11.258;2023-07-29T07:25:49;3.90;;;3.53;;
25525;SDS011;13424;48.424;11.258;2023-07-29T07:28:15;6.05;;;4.25;;
25525;SDS011;13424;48.424;11.258;2023-07-29T07:30:41;5.53;;;3.60;;
25525;SDS011;13424;48.424;11.258;2023-07-29T07:33:08;9.55;;;5.47;;
25525;SDS011;13424;48.424;11.258;2023-07-29T07:35:34;6.45;;;4.40;;
25525;SDS011;13424;48.424;11.258;2023-07-29T07:38:01;6.75;;;4.00;;
25525;SDS011;13424;48.424;11.258;2023-07-29T07:40:32;15.07;;;4.40;;
25525;SDS011;13424;48.424;11.258;2023-07-29T07:42:59;8.10;;;4.28;;
25525;SDS011;13424;48.424;11.258;2023-07-29T07:45:24;7.28;;;3.83;;
25525;SDS011;13424;48.424;11.258;2023-07-29T07:47:52;7.10;;;4.72;;
25525;SDS011;13424;48.424;11.258;2023-07-29T07:50:19;7.28;;;4.43;;
25525;SDS011;13424;48.424;11.258;2023-07-29T07:52:45;5.43;;;4.03;;
25525;SDS011;13424;48.424;11.258;2023-07-29T07:55:11;4.70;;;3.80;;
25525;SDS011;13424;48.424;11.258;2023-07-29T07:57:37;4.70;;;3.85;;
25525;SDS011;13424;48.424;11.258;2023-07-29T08:00:04;6.30;;;3.80;;
25525;SDS011;13424;48.424;11.258;2023-07-29T08:02:38;10.98;;;3.65;;
25525;SDS011;13424;48.424;11.258;2023-07-29T08:05:04;5.05;;;4.07;;
25525;SDS011;13424;48.424;11.258;2023-07-29T08:07:30;4.55;;;4.13;;
25525;SDS011;13424;48.424;11.258;2023-07-29T08:09:56;5.97;;;3.95;;
25525;SDS011;13424;48.424;11.258;2023-07-29T08:12:22;6.18;;;3.70;;
25525;SDS011;13424;48.424;11.258;2023-07-29T08:14:48;7.90;;;4.13;;
25525;SDS011;13424;48.424;11.258;2023-07-29T08:17:14;6.20;;;3.72;;
25525;SDS011;13424;48.424;11.258;2023-07-29T08:19:40;5.25;;;3.92;;
25525;SDS011;13424;48.424;11.258;2023-07-29T08:22:06;4.30;;;3.80;;
25525;SDS011;13424;48.424;11.258;2023-07-29T08:24:32;4.15;;;3.75;;
25525;SDS011;13424;48.424;11.258;2023-07-29T08:26:59;4.45;;;3.92;;
25525;SDS011;13424;48.424;11.258;2023-07-29T08:29:25;4.20;;;3.80;;
25525;SDS011;13424;48.424;11.258;2023-07-29T08:31:51;5.53;;;4.07;;
25525;SDS011;13424;48.424;11.258;2023-07-29T08:34:23;4.43;;;4.00;;
25525;SDS011;13424;48.424;11.258;2023-07-29T08:36:49;4.20;;;3.35;;
25525;SDS011;13424;48.424;11.258;2023-07-29T08:39:24;4.97;;;4.38;;
25525;SDS011;13424;48.424;11.258;2023-07-29T08:41:54;6.20;;;4.03;;
25525;SDS011;13424;48.424;11.258;2023-07-29T08:44:28;6.40;;;4.82;;
25525;SDS011;13424;48.424;11.258;2023-07-29T08:47:00;6.78;;;4.53;;
25525;SDS011;13424;48.424;11.258;2023-07-29T08:49:28;5.05;;;4.32;;
25525;SDS011;13424;48.424;11.258;2023-07-29T08:51:56;5.90;;;4.50;;
25525;SDS011;13424;48.424;11.258;2023-07-29T08:54:23;7.05;;;4.57;;
25525;SDS011;13424;48.424;11.258;2023-07-29T08:56:49;5.88;;;4.13;;
25525;SDS011;13424;48.424;11.258;2023-07-29T08:59:16;7.35;;;5.07;;
25525;SDS011;13424;48.424;11.258;2023-07-29T09:01:43;4.82;;;4.43;;
25525;SDS011;13424;48.424;11.258;2023-07-29T09:04:09;8.07;;;4.50;;
25525;SDS011;13424;48.424;11.258;2023-07-29T09:06:35;7.55;;;4.53;;
25525;SDS011;13424;48.424;11.258;2023-07-29T09:09:11;5.97;;;4.53;;
25525;SDS011;13424;48.424;11.258;2023-07-29T09:11:37;6.53;;;4.20;;
25525;SDS011;13424;48.424;11.258;2023-07-29T09:14:15;5.00;;;4.40;;
25525;SDS011;13424;48.424;11.258;2023-07-29T09:16:42;5.95;;;4.13;;
25525;SDS011;13424;48.424;11.258;2023-07-29T09:19:08;7.85;;;4.50;;
25525;SDS011;13424;48.424;11.258;2023-07-29T09:21:34;6.25;;;4.88;;
25525;SDS011;13424;48.424;11.258;2023-07-29T09:24:05;5.38;;;4.88;;
25525;SDS011;13424;48.424;11.258;2023-07-29T09:26:33;4.55;;;4.10;;
25525;SDS011;13424;48.424;11.258;2023-07-29T09:28:59;6.28;;;4.80;;
25525;SDS011;13424;48.424;11.258;2023-07-29T09:31:28;6.20;;;4.47;;
25525;SDS011;13424;48.424;11.258;2023-07-29T09:33:59;6.25;;;5.00;;
25525;SDS011;13424;48.424;11.258;2023-07-29T09:36:27;10.90;;;5.10;;
25525;SDS011;13424;48.424;11.258;2023-07-29T09:38:56;4.15;;;3.75;;
25525;SDS011;13424;48.424;11.258;2023-07-29T09:41:26;5.95;;;4.97;;
25525;SDS011;13424;48.424;11.258;2023-07-29T09:43:58;8.15;;;4.53;;
25525;SDS011;13424;48.424;11.258;2023-07-29T09:46:32;6.25;;;4.53;;
25525;SDS011;13424;48.424;11.258;2023-07-29T09:49:04;5.57;;;3.85;;
25525;SDS011;13424;48.424;11.258;2023-07-29T09:51:32;12.65;;;4.63;;
25525;SDS011;13424;48.424;11.258;2023-07-29T09:54:04;5.63;;;4.22;;
25525;SDS011;13424;48.424;11.258;2023-07-29T09:56:30;6.10;;;4.80;;
25525;SDS011;13424;48.424;11.258;2023-07-29T10:02:52;5.25;;;4.70;;
25525;SDS011;13424;48.424;11.258;2023-07-29T10:08:29;6.85;;;4.50;;
25525;SDS011;13424;48.424;11.258;2023-07-29T10:11:00;6.38;;;5.10;;
25525;SDS011;13424;48.424;11.258;2023-07-29T10:13:27;7.93;;;5.87;;
25525;SDS011;13424;48.424;11.258;2023-07-29T10:15:54;6.70;;;3.85;;
25525;SDS011;13424;48.424;11.258;2023-07-29T10:18:23;7.63;;;4.10;;
25525;SDS011;13424;48.424;11.258;2023-07-29T10:24:32;6.85;;;4.30;;
25525;SDS011;13424;48.424;11.258;2023-07-29T10:26:59;5.30;;;4.22;;
25525;SDS011;13424;48.424;11.258;2023-07-29T10:32:43;6.45;;;4.82;;
25525;SDS011;13424;48.424;11.258;2023-07-29T10:35:12;8.73;;;5.35;;
25525;SDS011;13424;48.424;11.258;2023-07-29T10:37:38;6.72;;;4.70;;
25525;SDS011;13424;48.424;11.258;2023-07-29T10:40:06;9.93;;;5.35;;
25525;SDS011;13424;48.424;11.258;2023-07-29T10:42:36;6.57;;;4.95;;
25525;SDS011;13424;48.424;11.258;2023-07-29T10:45:17;6.50;;;5.53;;
25525;SDS011;13424;48.424;11.258;2023-07-29T10:47:47;7.90;;;5.35;;
25525;SDS011;13424;48.424;11.258;2023-07-29T10:50:21;7.22;;;5.47;;
25525;SDS011;13424;48.424;11.258;2023-07-29T10:52:51;7.38;;;5.65;;
25525;SDS011;13424;48.424;11.258;2023-07-29T10:55:38;7.35;;;4.88;;
25525;SDS011;13424;48.424;11.258;2023-07-29T10:58:16;6.60;;;5.60;;
25525;SDS011;13424;48.424;11.258;2023-07-29T11:00:43;9.73;;;6.50;;
25525;SDS011;13424;48.424;11.258;2023-07-29T11:03:12;10.38;;;5.65;;
25525;SDS011;13424;48.424;11.258;2023-07-29T11:05:52;7.93;;;5.97;;
25525;SDS011;13424;48.424;11.258;2023-07-29T11:08:25;5.88;;;5.28;;
25525;SDS011;13424;48.424;11.258;2023-07-29T11:11:03;6.65;;;5.25;;
25525;SDS011;13424;48.424;11.258;2023-07-29T11:13:37;8.35;;;5.38;;
25525;SDS011;13424;48.424;11.258;2023-07-29T11:16:04;5.72;;;4.57;;
25525;SDS011;13424;48.424;11.258;2023-07-29T11:18:32;7.72;;;5.22;;
25525;SDS011;13424;48.424;11.258;2023-07-29T11:21:00;5.32;;;4.22;;
25525;SDS011;13424;48.424;11.258;2023-07-29T11:23:35;5.78;;;4.35;;
25525;SDS011;13424;48.424;11.258;2023-07-29T11:26:03;5.47;;;3.50;;
25525;SDS011;13424;48.424;11.258;2023-07-29T11:28:30;4.05;;;3.63;;
25525;SDS011;13424;48.424;11.258;2023-07-29T11:30:59;4.53;;;3.50;;
25525;SDS011;13424;48.424;11.258;2023-07-29T11:33:26;4.18;;;3.78;;
25525;SDS011;13424;48.424;11.258;2023-07-29T11:35:54;6.57;;;3.90;;
25525;SDS011;13424;48.424;11.258;2023-07-29T11:38:21;7.85;;;4.22;;
25525;SDS011;13424;48.424;11.258;2023-07-29T11:41:01;5.13;;;3.45;;
25525;SDS011;13424;48.424;11.258;2023-07-29T11:43:35;6.35;;;3.85;;
25525;SDS011;13424;48.424;11.258;2023-07-29T11:46:01;5.70;;;3.35;;
25525;SDS011;13424;48.424;11.258;2023-07-29T11:48:31;4.07;;;3.53;;
25525;SDS011;13424;48.424;11.258;2023-07-29T11:50:58;5.57;;;3.42;;
25525;SDS011;13424;48.424;11.258;2023-07-29T11:53:29;6.07;;;3.60;;
25525;SDS011;13424;48.424;11.258;2023-07-29T11:58:21;3.95;;;3.60;;
25525;SDS011;13424;48.424;11.258;2023-07-29T12:00:48;4.05;;;3.45;;
25525;SDS011;13424;48.424;11.258;2023-07-29T12:03:14;5.00;;;3.72;;
25525;SDS011;13424;48.424;11.258;2023-07-29T12:05:43;4.60;;;4.20;;
25525;SDS011;13424;48.424;11.258;2023-07-29T12:08:09;6.68;;;4.03;;
25525;SDS011;13424;48.424;11.258;2023-07-29T12:10:36;5.03;;;3.70;;
25525;SDS011;13424;48.424;11.258;2023-07-29T12:13:02;5.45;;;4.35;;
25525;SDS011;13424;48.424;11.258;2023-07-29T12:15:35;4.20;;;3.80;;
25525;SDS011;13424;48.424;11.258;2023-07-29T12:18:04;4.68;;;3.85;;
25525;SDS011;13424;48.424;11.258;2023-07-29T12:20:33;4.68;;;3.80;;
25525;SDS011;13424;48.424;11.258;2023-07-29T12:22:59;6.28;;;4.57;;
25525;SDS011;13424;48.424;11.258;2023-07-29T12:25:31;4.70;;;4.05;;
25525;SDS011;13424;48.424;11.258;2023-07-29T12:28:02;4.32;;;3.70;;
25525;SDS011;13424;48.424;11.258;2023-07-29T12:30:33;4.82;;;3.97;;
25525;SDS011;13424;48.424;11.258;2023-07-29T12:32:59;5.22;;;4.72;;
25525;SDS011;13424;48.424;11.258;2023-07-29T12:35:34;4.70;;;4.15;;
25525;SDS011;13424;48.424;11.258;2023-07-29T12:38:02;3.97;;;3.60;;
25525;SDS011;13424;48.424;11.258;2023-07-29T12:40:30;4.95;;;3.88;;
25525;SDS011;13424;48.424;11.258;2023-07-29T12:42:56;6.10;;;3.90;;
25525;SDS011;13424;48.424;11.258;2023-07-29T12:45:23;4.95;;;4.18;;
25525;SDS011;13424;48.424;11.258;2023-07-29T12:47:52;5.43;;;4.00;;
25525;SDS011;13424;48.424;11.258;2023-07-29T12:50:18;5.55;;;4.05;;
25525;SDS011;13424;48.424;11.258;2023-07-29T12:52:44;5.05;;;3.63;;
25525;SDS011;13424;48.424;11.258;2023-07-29T12:55:10;7.43;;;4.47;;
25525;SDS011;13424;48.424;11.258;2023-07-29T13:01:04;4.00;;;3.28;;
25525;SDS011;13424;48.424;11.258;2023-07-29T13:03:30;3.30;;;3.00;;
25525;SDS011;13424;48.424;11.258;2023-07-29T13:05:56;5.07;;;4.57;;
25525;SDS011;13424;48.424;11.258;2023-07-29T13:08:22;4.72;;;3.30;;
25525;SDS011;13424;48.424;11.258;2023-07-29T13:10:48;7.45;;;3.97;;
25525;SDS011;13424;48.424;11.258;2023-07-29T13:13:14;8.32;;;3.97;;
25525;SDS011;13424;48.424;11.258;2023-07-29T13:15:41;3.60;;;3.30;;
25525;SDS011;13424;48.424;11.258;2023-07-29T13:18:07;4.07;;;3.67;;
25525;SDS011;13424;48.424;11.258;2023-07-29T13:20:33;4.70;;;3.83;;
25525;SDS011;13424;48.424;11.258;2023-07-29T13:23:00;5.38;;;3.58;;
25525;SDS011;13424;48.424;11.258;2023-07-29T13:25:31;3.53;;;3.20;;
25525;SDS011;13424;48.424;11.258;2023-07-29T13:27:57;5.45;;;3.72;;
25525;SDS011;13424;48.424;11.258;2023-07-29T13:30:23;4.13;;;3.72;;
25525;SDS011;13424;48.424;11.258;2023-07-29T13:32:49;5.88;;;3.60;;
25525;SDS011;13424;48.424;11.258;2023-07-29T13:35:15;5.15;;;3.90;;
25525;SDS011;13424;48.424;11.258;2023-07-29T13:37:41;5.07;;;4.30;;
25525;SDS011;13424;48.424;11.258;2023-07-29T13:40:07;6.53;;;4.35;;
25525;SDS011;13424;48.424;11.258;2023-07-29T13:42:33;3.47;;;3.17;;
25525;SDS011;13424;48.424;11.258;2023-07-29T13:44:59;5.22;;;3.58;;
25525;SDS011;13424;48.424;11.258;2023-07-29T13:47:25;4.70;;;3.42;;
25525;SDS011;13424;48.424;11.258;2023-07-29T13:49:51;3.92;;;3.60;;
25525;SDS011;13424;48.424;11.258;2023-07-29T13:52:17;4.45;;;3.67;;
25525;SDS011;13424;48.424;11.258;2023-07-29T13:54:43;5.05;;;3.45;;
25525;SDS011;13424;48.424;11.258;2023-07-29T13:57:09;3.60;;;3.20;;
25525;SDS011;13424;48.424;11.258;2023-07-29T14:03:07;6.95;;;3.63;;
25525;SDS011;13424;48.424;11.258;2023-07-29T14:05:32;4.15;;;3.58;;
25525;SDS011;13424;48.424;11.258;2023-07-29T14:07:58;3.97;;;3.60;;
25525;SDS011;13424;48.424;11.258;2023-07-29T14:10:24;4.45;;;3.50;;
25525;SDS011;13424;48.424;11.258;2023-07-29T14:12:50;4.47;;;3.85;;
25525;SDS011;13424;48.424;11.258;2023-07-29T14:15:16;3.67;;;3.38;;
25525;SDS011;13424;48.424;11.258;2023-07-29T14:17:43;4.15;;;3.75;;
25525;SDS011;13424;48.424;11.258;2023-07-29T14:20:09;5.93;;;4.00;;
25525;SDS011;13424;48.424;11.258;2023-07-29T14:22:36;4.32;;;3.88;;
25525;SDS011;13424;48.424;11.258;2023-07-29T14:25:02;4.60;;;3.80;;
25525;SDS011;13424;48.424;11.258;2023-07-29T14:27:28;3.45;;;3.15;;
25525;SDS011;13424;48.424;11.258;2023-07-29T14:29:54;6.43;;;3.58;;
25525;SDS011;13424;48.424;11.258;2023-07-29T14:32:20;4.03;;;3.33;;
25525;SDS011;13424;48.424;11.258;2023-07-29T14:34:46;4.15;;;3.65;;
25525;SDS011;13424;48.424;11.258;2023-07-29T14:37:12;6.03;;;3.38;;
25525;SDS011;13424;48.424;11.258;2023-07-29T14:39:38;4.55;;;3.78;;
25525;SDS011;13424;48.424;11.258;2023-07-29T14:42:04;4.63;;;3.28;;
25525;SDS011;13424;48.424;11.258;2023-07-29T14:44:30;5.13;;;3.45;;
25525;SDS011;13424;48.424;11.258;2023-07-29T14:46:56;5.80;;;3.55;;
25525;SDS011;13424;48.424;11.258;2023-07-29T14:49:22;3.40;;;3.05;;
25525;SDS011;13424;48.424;11.258;2023-07-29T14:51:48;3.78;;;2.90;;
25525;SDS011;13424;48.424;11.258;2023-07-29T14:54:14;4.13;;;2.85;;
25525;SDS011;13424;48.424;11.258;2023-07-29T14:56:40;4.43;;;3.05;;
25525;SDS011;13424;48.424;11.258;2023-07-29T14:59:06;4.78;;;3.13;;
25525;SDS011;13424;48.424;11.258;2023-07-29T15:01:32;4.55;;;3.55;;
25525;SDS011;13424;48.424;11.258;2023-07-29T15:03:58;6.15;;;3.08;;
25525;SDS011;13424;48.424;11.258;2023-07-29T15:06:24;2.50;;;2.30;;
25525;SDS011;13424;48.424;11.258;2023-07-29T15:08:49;1.40;;;1.30;;
25525;SDS011;13424;48.424;11.258;2023-07-29T15:11:15;2.40;;;1.17;;
25525;SDS011;13424;48.424;11.258;2023-07-29T15:13:42;1.58;;;1.48;;
25525;SDS011;13424;48.424;11.258;2023-07-29T15:16:08;1.75;;;1.63;;
25525;SDS011;13424;48.424;11.258;2023-07-29T15:18:34;2.17;;;1.98;;